Terminal Aerodrome Forecast
Issued by NWS Knoxville/Tri Cities, TN

Home | Current Version | Previous Version | Text Only | Print | Product List | Glossary On
Versions: 1 2 3 4 5 6 7 8 9 10 11 12 13
000
FTUS44 KMRX 271135
TAFTYS
TAF
KTYS 271135Z 2712/2812 36007KT P6SM OVC015
     FM271430 01007KT P6SM BKN030
     FM271700 30008KT P6SM BKN040
     FM272000 27007KT P6SM SCT040
     FM280000 VRB02KT P6SM SCT250=

USA.gov is the U.S. government's official web portal to all federal, state and local government web resources and services.